createdAt,value
2017-11-27T00:01:08.120Z,99.90
2017-11-27T00:03:35.168Z,99.90
2017-11-27T00:06:02.220Z,99.90
2017-11-27T00:08:29.269Z,99.90
2017-11-27T00:10:56.339Z,99.90
2017-11-27T00:13:23.474Z,99.90
2017-11-27T00:15:50.530Z,99.90
2017-11-27T00:18:17.607Z,99.90
2017-11-27T00:20:45.439Z,99.90
2017-11-27T00:23:12.549Z,99.90
2017-11-27T00:25:39.589Z,99.90
2017-11-27T00:28:06.653Z,99.90
2017-11-27T00:30:33.769Z,99.90
2017-11-27T00:33:01.587Z,99.90
2017-11-27T00:35:28.619Z,99.90
2017-11-27T00:37:55.682Z,99.90
2017-11-27T00:40:22.753Z,99.90
2017-11-27T00:42:49.821Z,99.90
2017-11-27T00:45:16.883Z,99.90
2017-11-27T00:47:44.704Z,99.90
2017-11-27T00:50:11.817Z,99.90
2017-11-27T00:52:38.940Z,99.90
2017-11-27T00:55:06.776Z,99.90
2017-11-27T00:57:33.875Z,99.90
2017-11-27T01:00:01.005Z,99.90
2017-11-27T01:02:28.841Z,99.90
2017-11-27T01:04:55.937Z,99.90
2017-11-27T01:07:23.814Z,99.90
2017-11-27T01:09:50.886Z,99.90
2017-11-27T01:12:17.940Z,99.90
2017-11-27T01:14:45.030Z,99.90
2017-11-27T01:17:12.143Z,99.90
2017-11-27T01:19:39.237Z,99.90
2017-11-27T01:22:07.052Z,99.90
2017-11-27T01:24:34.111Z,99.90
2017-11-27T01:27:01.167Z,99.90
2017-11-27T01:29:28.213Z,99.90
2017-11-27T01:31:55.270Z,99.90
2017-11-27T01:34:22.368Z,99.90
2017-11-27T01:36:49.427Z,99.90
2017-11-27T01:39:16.484Z,99.90
2017-11-27T01:41:43.533Z,99.90
2017-11-27T01:44:10.613Z,99.90
2017-11-27T01:46:37.690Z,99.90
2017-11-27T01:49:05.515Z,99.90
2017-11-27T01:51:32.559Z,99.90
2017-11-27T01:53:59.668Z,99.90
2017-11-27T01:56:26.727Z,99.90
2017-11-27T01:58:53.781Z,99.90
2017-11-27T02:01:20.867Z,99.90
2017-11-27T02:03:47.925Z,99.90
2017-11-27T02:06:14.986Z,99.90
2017-11-27T02:08:42.827Z,99.90
2017-11-27T02:11:09.882Z,99.90
2017-11-27T02:13:36.936Z,99.90
2017-11-27T02:16:04.081Z,99.90
2017-11-27T02:18:31.160Z,99.90
2017-11-27T02:20:58.975Z,99.90
2017-11-27T02:23:26.046Z,99.90
2017-11-27T02:25:53.097Z,99.90
2017-11-27T02:28:20.153Z,99.90
2017-11-27T02:30:47.245Z,99.90
2017-11-27T02:33:14.333Z,99.90
2017-11-27T02:35:41.388Z,99.90
2017-11-27T02:38:08.459Z,99.90
2017-11-27T02:40:36.328Z,99.90
2017-11-27T02:43:04.140Z,99.90
2017-11-27T02:45:31.194Z,99.90
2017-11-27T02:47:58.246Z,99.90
2017-11-27T02:50:25.296Z,99.90
2017-11-27T02:52:52.397Z,99.90
2017-11-27T02:55:20.219Z,99.90
2017-11-27T02:57:47.430Z,99.90
2017-11-27T03:00:14.509Z,99.90
2017-11-27T03:02:41.636Z,99.90
2017-11-27T03:05:08.703Z,99.90
2017-11-27T03:07:35.792Z,99.90
2017-11-27T03:10:02.842Z,99.90
2017-11-27T03:12:29.897Z,99.90
2017-11-27T03:14:56.973Z,99.90
2017-11-27T03:17:24.024Z,99.90
2017-11-27T03:19:51.236Z,99.90
2017-11-27T03:22:18.317Z,99.90
2017-11-27T03:24:46.140Z,99.90
2017-11-27T03:27:13.227Z,99.90
2017-11-27T03:29:41.062Z,99.90
2017-11-27T03:32:08.117Z,99.90
2017-11-27T03:34:35.175Z,99.90
2017-11-27T03:37:03.029Z,99.90
2017-11-27T03:39:30.087Z,99.90
2017-11-27T03:41:57.135Z,99.90
2017-11-27T03:44:24.204Z,99.90
2017-11-27T03:46:52.043Z,99.90
2017-11-27T03:49:19.145Z,99.90
2017-11-27T03:51:46.197Z,99.90
2017-11-27T03:54:13.260Z,99.90
2017-11-27T03:56:40.312Z,99.90
2017-11-27T03:59:07.379Z,99.90
2017-11-27T04:01:34.433Z,99.90
2017-11-27T04:04:01.491Z,99.90
2017-11-27T04:06:28.540Z,99.90
2017-11-27T04:08:56.442Z,99.90
2017-11-27T04:11:23.508Z,99.90
2017-11-27T04:13:50.588Z,99.90
2017-11-27T04:16:18.452Z,99.90
2017-11-27T04:18:45.500Z,99.90
2017-11-27T04:21:12.604Z,99.90
2017-11-27T04:23:39.669Z,99.90
2017-11-27T04:26:06.725Z,99.90
2017-11-27T04:28:33.799Z,99.90
2017-11-27T04:31:00.856Z,99.90
2017-11-27T04:33:28.159Z,99.90
2017-11-27T04:35:55.220Z,99.90
2017-11-27T04:38:22.324Z,99.90
2017-11-27T04:40:50.150Z,99.90
2017-11-27T04:43:17.216Z,99.90
2017-11-27T04:45:44.564Z,99.90
2017-11-27T04:48:11.661Z,99.90
2017-11-27T04:50:38.727Z,99.90
2017-11-27T04:53:05.814Z,99.90
2017-11-27T04:55:32.877Z,99.90
2017-11-27T04:57:59.984Z,99.90
2017-11-27T05:00:27.052Z,99.90
2017-11-27T05:02:54.116Z,99.90
2017-11-27T05:05:21.198Z,99.90
2017-11-27T05:07:49.013Z,99.90
2017-11-27T05:10:16.065Z,99.90
2017-11-27T05:12:43.117Z,99.90
2017-11-27T05:15:10.192Z,99.90
2017-11-27T05:17:38.018Z,99.90
2017-11-27T05:20:05.125Z,99.90
2017-11-27T05:22:33.050Z,99.90
2017-11-27T05:25:00.102Z,99.90
2017-11-27T05:27:27.172Z,99.90
2017-11-27T05:29:54.212Z,99.90
2017-11-27T05:32:21.292Z,99.90
2017-11-27T05:34:48.355Z,99.90
2017-11-27T05:37:15.561Z,99.90
2017-11-27T05:39:42.618Z,99.90
2017-11-27T05:42:10.436Z,99.90
2017-11-27T05:44:37.518Z,99.90
2017-11-27T05:47:04.579Z,99.90
2017-11-27T05:49:31.664Z,99.90
2017-11-27T05:51:58.728Z,99.90
2017-11-27T05:54:25.822Z,99.90
2017-11-27T05:56:52.886Z,99.90
2017-11-27T05:59:20.721Z,99.90
2017-11-27T06:01:47.768Z,99.90
2017-11-27T06:04:14.827Z,99.90
2017-11-27T06:06:41.876Z,99.90
2017-11-27T06:09:08.991Z,99.90
2017-11-27T06:11:36.050Z,99.90
2017-11-27T06:14:03.148Z,99.90
2017-11-27T06:16:30.969Z,99.90
2017-11-27T06:18:58.012Z,99.90
2017-11-27T06:21:25.099Z,99.90
2017-11-27T06:23:52.921Z,99.90
2017-11-27T06:26:19.972Z,99.90
2017-11-27T06:28:47.108Z,99.90
2017-11-27T06:31:14.205Z,99.90
2017-11-27T06:33:41.252Z,99.90
2017-11-27T06:36:08.315Z,99.90
2017-11-27T06:38:36.192Z,99.90
2017-11-27T06:41:03.256Z,99.90
2017-11-27T06:43:30.353Z,99.90
2017-11-27T06:45:57.446Z,99.90
2017-11-27T06:48:24.587Z,99.90
2017-11-27T06:50:51.659Z,99.90
2017-11-27T06:53:18.712Z,99.90
2017-11-27T06:55:45.773Z,99.90
2017-11-27T06:58:13.446Z,99.90
2017-11-27T07:00:40.495Z,99.90
2017-11-27T07:03:07.646Z,99.90
2017-11-27T07:05:34.684Z,99.90
2017-11-27T07:08:01.748Z,99.90
2017-11-27T07:10:28.812Z,99.90
2017-11-27T07:12:55.868Z,99.90
2017-11-27T07:15:22.923Z,99.90
2017-11-27T07:17:50.021Z,99.90
2017-11-27T07:20:17.103Z,99.90
2017-11-27T07:22:44.174Z,99.90
2017-11-27T07:25:12.029Z,99.90
2017-11-27T07:27:39.128Z,99.90
2017-11-27T07:30:06.190Z,99.90
2017-11-27T07:32:33.244Z,99.90
2017-11-27T07:35:00.299Z,99.90
2017-11-27T07:37:33.167Z,99.90
2017-11-27T07:40:00.217Z,99.90
2017-11-27T07:42:27.325Z,99.90
2017-11-27T07:44:55.138Z,99.90
2017-11-27T07:47:22.215Z,99.90
2017-11-27T07:49:49.269Z,99.90
2017-11-27T07:52:16.339Z,99.90
2017-11-27T07:54:44.166Z,99.90
2017-11-27T07:57:11.272Z,99.90
2017-11-27T07:59:38.342Z,99.90
2017-11-27T08:02:05.400Z,99.90
2017-11-27T08:04:32.501Z,99.90
2017-11-27T08:07:00.318Z,99.90
2017-11-27T08:09:27.362Z,99.90
2017-11-27T08:11:54.452Z,99.90
2017-11-27T08:14:22.322Z,99.90
2017-11-27T08:16:50.131Z,99.90
2017-11-27T08:19:17.211Z,99.90
2017-11-27T08:21:44.270Z,99.90
2017-11-27T08:24:11.509Z,99.90
2017-11-27T08:26:38.560Z,99.90
2017-11-27T08:29:05.652Z,99.90
2017-11-27T08:31:33.495Z,99.90
2017-11-27T08:34:00.642Z,99.90
2017-11-27T08:36:28.482Z,99.90
2017-11-27T08:38:55.614Z,99.90
2017-11-27T08:41:22.705Z,99.90
2017-11-27T08:43:50.610Z,99.90
2017-11-27T08:46:17.692Z,99.90
2017-11-27T08:48:44.749Z,99.90
2017-11-27T08:51:11.808Z,99.90
2017-11-27T08:53:38.984Z,99.90
2017-11-27T08:56:06.853Z,99.90
2017-11-27T08:58:35.584Z,99.90
2017-11-27T09:01:02.662Z,99.90
2017-11-27T09:03:29.724Z,99.90
2017-11-27T09:05:56.893Z,99.90
2017-11-27T09:08:24.757Z,99.90
2017-11-27T09:10:52.649Z,99.90
2017-11-27T09:13:20.018Z,99.90
2017-11-27T09:15:47.097Z,99.90
2017-11-27T09:18:14.154Z,99.90
2017-11-27T09:20:41.220Z,99.90
2017-11-27T09:23:09.096Z,99.90
2017-11-27T09:25:36.221Z,99.90
2017-11-27T09:28:03.288Z,99.90
2017-11-27T09:30:31.183Z,99.90
2017-11-27T09:32:58.258Z,99.90
2017-11-27T09:35:25.336Z,99.90
2017-11-27T09:37:52.414Z,99.90
2017-11-27T09:40:20.246Z,99.90
2017-11-27T09:42:47.379Z,99.90
2017-11-27T09:45:14.520Z,99.90
2017-11-27T09:47:41.575Z,99.90
2017-11-27T09:50:08.649Z,99.90
2017-11-27T09:52:35.740Z,99.90
2017-11-27T09:55:02.796Z,99.90
2017-11-27T09:57:29.859Z,99.90
2017-11-27T09:59:56.951Z,99.90
2017-11-27T10:02:24.240Z,99.90
2017-11-27T10:04:51.304Z,99.90
2017-11-27T10:07:18.366Z,99.90
2017-11-27T10:09:45.468Z,99.90
2017-11-27T10:12:13.569Z,99.90
2017-11-27T10:14:40.739Z,99.90
2017-11-27T10:17:07.852Z,99.90
2017-11-27T10:19:34.929Z,99.90
2017-11-27T10:22:01.990Z,99.90
2017-11-27T10:24:29.099Z,99.90
2017-11-27T10:26:56.175Z,99.90
2017-11-27T10:29:25.177Z,99.90
2017-11-27T10:31:52.534Z,99.90
2017-11-27T10:34:19.702Z,99.90
2017-11-27T10:36:47.604Z,99.90
2017-11-27T10:39:14.757Z,99.90
2017-11-27T10:41:42.785Z,99.90
2017-11-27T10:44:09.913Z,99.90
2017-11-27T10:46:37.258Z,99.90
2017-11-27T10:49:04.349Z,99.90
2017-11-27T10:51:31.430Z,99.90
2017-11-27T10:53:59.294Z,99.90
2017-11-27T10:56:27.163Z,99.90
2017-11-27T10:58:55.027Z,99.90
2017-11-27T11:01:22.848Z,99.90
2017-11-27T11:03:49.919Z,99.90
2017-11-27T11:06:17.054Z,99.90
2017-11-27T11:08:44.143Z,99.90
2017-11-27T11:11:11.994Z,99.90
2017-11-27T11:13:39.085Z,99.90
2017-11-27T11:16:06.188Z,99.90
2017-11-27T11:18:33.270Z,99.90
2017-11-27T11:21:01.112Z,99.90
2017-11-27T11:23:28.204Z,99.90
2017-11-27T11:25:55.386Z,99.90
2017-11-27T11:28:22.456Z,99.90
2017-11-27T11:30:49.511Z,99.90
2017-11-27T11:33:16.569Z,99.90
2017-11-27T11:35:44.730Z,99.90
2017-11-27T11:38:11.791Z,99.90
2017-11-27T11:40:39.671Z,99.90
2017-11-27T11:43:06.782Z,99.90
2017-11-27T11:45:33.860Z,99.90
2017-11-27T11:48:01.687Z,99.90
2017-11-27T11:50:28.784Z,99.90
2017-11-27T11:52:56.721Z,99.90
2017-11-27T11:55:23.802Z,99.90
2017-11-27T11:57:51.691Z,99.20
2017-11-27T12:00:18.753Z,99.20
2017-11-27T12:02:45.821Z,98.80
2017-11-27T12:05:12.871Z,99.20
2017-11-27T12:07:39.947Z,99.10
2017-11-27T12:10:07.005Z,99.60
2017-11-27T12:12:34.834Z,99.10
2017-11-27T12:15:02.180Z,99.10
2017-11-27T12:17:29.259Z,99.10
2017-11-27T12:19:56.322Z,99.10
2017-11-27T12:22:24.189Z,98.00
2017-11-27T12:24:51.266Z,98.00
2017-11-27T12:27:18.320Z,98.40
2017-11-27T12:29:45.404Z,98.40
2017-11-27T12:32:12.525Z,98.10
2017-11-27T12:34:39.641Z,97.70
2017-11-27T12:37:07.488Z,98.30
2017-11-27T12:39:34.620Z,97.90
2017-11-27T12:42:01.719Z,98.30
2017-11-27T12:44:29.583Z,98.00
2017-11-27T12:46:56.734Z,98.00
2017-11-27T12:49:24.556Z,98.40
2017-11-27T12:51:51.622Z,98.40
2017-11-27T12:54:18.707Z,98.40
2017-11-27T12:56:45.934Z,98.30
2017-11-27T12:59:13.005Z,98.20
2017-11-27T13:01:40.174Z,98.30
2017-11-27T13:04:07.250Z,98.40
2017-11-27T13:06:34.305Z,97.90
2017-11-27T13:09:01.404Z,98.00
2017-11-27T13:11:28.458Z,98.00
2017-11-27T13:13:55.513Z,98.20
2017-11-27T13:16:22.666Z,98.10
2017-11-27T13:18:49.816Z,97.80
2017-11-27T13:21:16.891Z,98.00
2017-11-27T13:23:43.957Z,97.80
2017-11-27T13:26:11.012Z,98.20
2017-11-27T13:28:38.103Z,98.70
2017-11-27T13:31:05.279Z,98.50
2017-11-27T13:33:32.363Z,98.60
2017-11-27T13:35:59.460Z,98.60
2017-11-27T13:38:26.534Z,98.90
2017-11-27T13:40:53.604Z,99.30
2017-11-27T13:43:20.680Z,99.10
2017-11-27T13:45:48.617Z,99.00
2017-11-27T13:48:15.694Z,99.00
2017-11-27T13:50:43.525Z,99.90
2017-11-27T13:53:10.636Z,99.90
2017-11-27T13:55:37.700Z,99.90
2017-11-27T13:58:05.435Z,99.90
2017-11-27T14:00:32.536Z,99.90
2017-11-27T14:02:59.583Z,99.90
2017-11-27T14:05:26.653Z,99.90
2017-11-27T14:07:53.715Z,99.90
2017-11-27T14:10:21.546Z,99.90
2017-11-27T14:12:48.643Z,99.90
2017-11-27T14:15:16.537Z,99.90
2017-11-27T14:17:43.612Z,99.90
2017-11-27T14:20:10.675Z,99.90
2017-11-27T14:22:37.732Z,99.90
2017-11-27T14:25:10.537Z,99.90
2017-11-27T14:27:38.353Z,99.90
2017-11-27T14:30:05.533Z,99.90
2017-11-27T14:32:33.543Z,99.90
2017-11-27T14:35:00.637Z,99.90
2017-11-27T14:37:27.692Z,99.90
2017-11-27T14:39:54.788Z,99.90
2017-11-27T14:42:21.842Z,99.90
2017-11-27T14:44:48.919Z,99.90
2017-11-27T14:47:15.991Z,99.90
2017-11-27T14:49:43.078Z,99.90
2017-11-27T14:52:10.131Z,99.90
2017-11-27T14:54:37.193Z,99.90
2017-11-27T14:57:04.263Z,99.90
2017-11-27T14:59:31.335Z,99.90
2017-11-27T15:01:58.402Z,99.90
2017-11-27T15:04:26.280Z,99.90
2017-11-27T15:06:53.363Z,99.90
2017-11-27T15:09:20.431Z,99.90
2017-11-27T15:11:47.613Z,99.90
2017-11-27T15:14:15.791Z,99.90
2017-11-27T15:16:43.622Z,99.90
2017-11-27T15:19:10.694Z,99.90
2017-11-27T15:21:37.745Z,99.90
2017-11-27T15:24:04.825Z,99.90
2017-11-27T15:26:31.940Z,99.90
2017-11-27T15:28:59.144Z,99.90
2017-11-27T15:31:26.252Z,99.90
2017-11-27T15:33:54.085Z,99.90
2017-11-27T15:36:21.171Z,99.90
2017-11-27T15:38:49.122Z,99.90
2017-11-27T15:41:16.229Z,99.90
2017-11-27T15:43:43.284Z,99.90
2017-11-27T15:46:10.519Z,99.90
2017-11-27T15:48:37.595Z,99.90
2017-11-27T15:51:04.832Z,99.90
2017-11-27T15:53:31.932Z,99.90
2017-11-27T15:55:59.114Z,99.90
2017-11-27T15:58:26.338Z,99.90
2017-11-27T16:00:54.261Z,99.90
2017-11-27T16:03:21.352Z,99.90
2017-11-27T16:05:49.213Z,99.90
2017-11-27T16:08:16.273Z,99.90
2017-11-27T16:10:44.110Z,99.90
2017-11-27T16:13:11.234Z,99.90
2017-11-27T16:15:38.368Z,99.90
2017-11-27T16:18:05.453Z,99.90
2017-11-27T16:20:32.511Z,99.90
2017-11-27T16:22:59.564Z,99.90
2017-11-27T16:25:26.644Z,99.90
2017-11-27T16:27:53.730Z,99.90
2017-11-27T16:30:20.788Z,99.90
2017-11-27T16:32:47.879Z,99.90
2017-11-27T16:35:14.960Z,99.90
2017-11-27T16:37:42.092Z,99.90
2017-11-27T16:40:09.929Z,99.90
2017-11-27T16:42:37.008Z,99.90
2017-11-27T16:45:04.896Z,99.90
2017-11-27T16:47:31.958Z,99.90
2017-11-27T16:49:59.036Z,99.90
2017-11-27T16:52:26.279Z,99.90
2017-11-27T16:54:53.357Z,99.90
2017-11-27T16:57:20.622Z,99.90
2017-11-27T16:59:48.457Z,99.90
2017-11-27T17:02:15.559Z,99.90
2017-11-27T17:04:42.642Z,99.90
2017-11-27T17:07:09.777Z,99.90
2017-11-27T17:09:36.883Z,99.90
2017-11-27T17:12:04.754Z,99.90
2017-11-27T17:14:32.584Z,99.90
2017-11-27T17:16:59.686Z,99.90
2017-11-27T17:19:26.761Z,99.90
2017-11-27T17:21:53.826Z,99.90
2017-11-27T17:24:20.904Z,99.90
2017-11-27T17:43:25.592Z,99.90
2017-11-27T17:45:55.961Z,99.90
2017-11-27T17:48:23.045Z,99.90
2017-11-27T17:50:50.899Z,99.90
2017-11-27T17:53:18.757Z,99.90
2017-11-27T17:55:46.596Z,99.90
2017-11-27T17:58:14.394Z,99.90
2017-11-27T18:00:42.244Z,99.90
2017-11-27T18:03:09.302Z,99.90
2017-11-27T18:05:37.164Z,99.90
2017-11-27T18:08:04.245Z,99.90
2017-11-27T18:10:31.294Z,99.90
2017-11-27T18:12:58.431Z,99.90
2017-11-27T18:15:26.263Z,99.90
2017-11-27T18:17:53.325Z,99.90
2017-11-27T18:20:20.409Z,99.90
2017-11-27T18:22:47.508Z,99.90
2017-11-27T18:25:14.660Z,99.90
2017-11-27T18:27:41.715Z,99.90
2017-11-27T18:30:08.773Z,99.90
2017-11-27T18:32:35.826Z,99.90
2017-11-27T18:35:02.970Z,99.90
2017-11-27T18:37:30.054Z,99.90
2017-11-27T18:39:57.206Z,99.90
2017-11-27T18:42:24.247Z,99.90
2017-11-27T18:44:52.108Z,99.90
2017-11-27T18:47:19.932Z,99.90
2017-11-27T18:49:47.055Z,99.90
2017-11-27T18:52:14.177Z,99.90
2017-11-27T18:54:42.156Z,99.90
2017-11-27T18:57:09.476Z,99.90
2017-11-27T18:59:36.578Z,99.90
2017-11-27T19:02:04.584Z,99.90
2017-11-27T19:04:31.687Z,99.90
2017-11-27T19:06:58.969Z,99.90
2017-11-27T19:09:26.084Z,99.90
2017-11-27T19:11:53.453Z,99.90
2017-11-27T19:14:20.543Z,99.90
2017-11-27T19:16:47.606Z,99.90
2017-11-27T19:19:15.545Z,99.90
2017-11-27T19:21:42.591Z,99.90
2017-11-27T19:24:09.687Z,99.90
2017-11-27T19:26:37.522Z,99.90
2017-11-27T19:29:04.651Z,99.90
2017-11-27T19:31:31.789Z,99.90
2017-11-27T19:33:58.929Z,99.90
2017-11-27T19:36:26.029Z,99.90
2017-11-27T19:38:53.145Z,99.90
2017-11-27T19:41:20.361Z,99.90
2017-11-27T19:43:48.267Z,99.90
2017-11-27T19:46:15.367Z,99.90
2017-11-27T19:48:42.434Z,99.90
2017-11-27T19:51:10.281Z,99.90
2017-11-27T19:53:37.519Z,99.90
2017-11-27T19:56:04.712Z,99.90
2017-11-27T19:58:31.843Z,99.90
2017-11-27T20:00:59.710Z,99.90
2017-11-27T20:03:27.616Z,99.90
2017-11-27T20:05:54.726Z,99.90
2017-11-27T20:08:22.602Z,99.90
2017-11-27T20:10:49.745Z,99.90
2017-11-27T20:13:17.578Z,99.90
2017-11-27T20:15:44.643Z,99.90
2017-11-27T20:18:11.726Z,99.90
2017-11-27T20:20:39.661Z,99.90
2017-11-27T20:23:06.778Z,99.90
2017-11-27T20:25:33.848Z,99.90
2017-11-27T20:28:00.947Z,99.90
2017-11-27T20:30:28.038Z,99.90
2017-11-27T20:32:55.144Z,99.90
2017-11-27T20:35:22.237Z,99.90
2017-11-27T20:37:49.343Z,99.90
2017-11-27T20:40:16.438Z,99.90
2017-11-27T20:42:43.500Z,99.90
2017-11-27T20:45:11.754Z,99.90
2017-11-27T20:47:38.838Z,99.90
2017-11-27T20:50:05.950Z,99.90
2017-11-27T20:52:33.097Z,99.90
2017-11-27T20:55:00.285Z,99.90
2017-11-27T20:57:28.313Z,99.90
2017-11-27T20:59:55.656Z,99.90
2017-11-27T21:02:22.783Z,99.90
2017-11-27T21:04:50.678Z,99.90
2017-11-27T21:07:17.783Z,99.90
2017-11-27T21:09:44.878Z,99.90
2017-11-27T21:12:11.992Z,99.90
2017-11-27T21:14:39.846Z,99.90
2017-11-27T21:17:06.948Z,99.90
2017-11-27T21:19:34.045Z,99.90
2017-11-27T21:22:01.991Z,99.90
2017-11-27T21:24:29.057Z,99.90
2017-11-27T21:26:56.205Z,99.90
2017-11-27T21:29:24.113Z,99.90
2017-11-27T21:31:51.228Z,99.90
2017-11-27T21:34:18.313Z,99.90
2017-11-27T21:36:45.403Z,99.90
2017-11-27T21:39:12.497Z,99.90
2017-11-27T21:41:39.590Z,99.90
2017-11-27T21:44:06.664Z,99.90
2017-11-27T21:46:33.769Z,99.90
2017-11-27T21:49:00.976Z,99.90
2017-11-27T21:51:28.146Z,99.90
2017-11-27T21:53:56.012Z,99.90
2017-11-27T21:56:23.959Z,99.90
2017-11-27T21:58:51.088Z,99.90
2017-11-27T22:01:18.156Z,99.90
2017-11-27T22:03:45.265Z,99.90
2017-11-27T22:06:12.470Z,99.90
2017-11-27T22:08:40.386Z,99.90
2017-11-27T22:11:07.477Z,99.90
2017-11-27T22:13:34.580Z,99.90
2017-11-27T22:16:01.672Z,99.90
2017-11-27T22:18:28.747Z,99.90
2017-11-27T22:20:56.626Z,99.90
2017-11-27T22:23:24.461Z,99.90
2017-11-27T22:25:51.577Z,99.90
2017-11-27T22:28:18.727Z,99.90
2017-11-27T22:30:45.810Z,99.90
2017-11-27T22:33:12.876Z,99.90
2017-11-27T22:35:40.737Z,99.90
2017-11-27T22:38:08.595Z,99.90
2017-11-27T22:40:35.722Z,99.90
2017-11-27T22:43:02.809Z,99.90
2017-11-27T22:45:30.688Z,99.90
2017-11-27T22:47:58.551Z,99.90
2017-11-27T22:50:26.390Z,99.90
2017-11-27T22:52:53.526Z,99.90
2017-11-27T22:55:20.677Z,99.90
2017-11-27T22:57:48.732Z,99.90
2017-11-27T23:00:16.708Z,99.90
2017-11-27T23:02:43.896Z,99.90
2017-11-27T23:05:11.112Z,99.90
2017-11-27T23:07:38.205Z,99.90
2017-11-27T23:10:06.073Z,99.90
2017-11-27T23:12:34.063Z,99.90
2017-11-27T23:15:01.156Z,99.90
2017-11-27T23:17:28.211Z,99.90
2017-11-27T23:19:55.275Z,99.90
2017-11-27T23:22:22.512Z,99.90
2017-11-27T23:24:49.699Z,99.90
2017-11-27T23:27:17.522Z,99.90
2017-11-27T23:29:44.687Z,99.90
2017-11-27T23:32:11.800Z,99.90
2017-11-27T23:34:38.849Z,99.90
2017-11-27T23:37:05.981Z,99.90
2017-11-27T23:39:33.095Z,99.90
2017-11-27T23:42:00.192Z,99.90
2017-11-27T23:44:27.273Z,99.90
2017-11-27T23:46:54.368Z,99.90
2017-11-27T23:49:21.496Z,99.90
2017-11-27T23:51:48.743Z,99.90
2017-11-27T23:54:15.839Z,99.90
2017-11-27T23:56:42.946Z,99.90
2017-11-27T23:59:10.149Z,99.90
